Ariadne Jacob — ZCTC4 — position and weather

sailwx.info

Track history (hours):
 
Tides and Currents Weather Stations Pressure Air Temp Water Temp Dewpoint Dewpoint Depression Visibility Wind Speed Wind Dir Waves Ship Positions

Ariadne Jacob

Last reported at 2018-Jun-04 15:53 UTC. Time now 2018-Jun-19 14:04 UTC.
Position N 17°29' W 063°01'.
Warning: this ship's position is 14 days out of date.

Length 228 m; draft 9.6 m.

Type: Tanker. MMSI: 319768000.

Date/timePositionNaut miles runAvg speedWind from/ knotsBaromVisibWave heightAir tempDewpointWater temp
2018-Jun-04 15:53N 17°29' W 063°01'0 0.3
2018-Jun-04 15:26N 17°29' W 063°01'0 0.0
2018-Jun-04 14:56N 17°29' W 063°01'0 0.0
2018-Jun-04 14:26N 17°29' W 063°01'0 0.0
2018-Jun-04 13:41N 17°29' W 063°01'0 0.1
2018-Jun-04 13:23N 17°29' W 063°01'1 0.0
2018-Jun-03 05:01N 17°30' W 063°00'0 1.5
2018-Jun-03 04:56N 17°29' W 063°00'2 2.3
2018-Jun-03 04:03N 17°29' W 063°02'2 7.8
2018-Jun-03 03:45N 17°27' W 063°04'411.3
2018-Jun-03 03:26N 17°26' W 063°08'1 1.8
2018-Jun-03 02:44N 17°26' W 063°09'0 1.6
2018-Jun-03 02:25N 17°26' W 063°09'5 1.4
2018-Jun-02 22:44N 17°29' W 063°04'4 5.5
2018-Jun-02 22:02N 17°25' W 063°04'0 7.8
2018-Jun-02 22:00N 17°25' W 063°04'5 9.5
2018-Jun-02 21:26N 17°20' W 063°07'15 9.5
2018-Jun-02 19:49N 17°10' W 062°55'413.3
2018-Jun-02 19:30N 17°06' W 062°53'16713.6
2018-Jun-02 07:16N 14°41' W 061°28'814.1
2018-Jun-02 06:41N 14°34' W 061°23'314.4
2018-Jun-02 06:27N 14°31' W 061°22'1214.4
2018-Jun-02 05:35N 14°20' W 061°16'114.8
2018-Jun-02 05:30N 14°19' W 061°15'714.3
2018-Jun-02 05:00N 14°13' W 061°11'14 0.4
2018-May-31 18:53N 14°04' W 061°01'0 0.0
2018-May-31 03:22N 14°04' W 061°01'0 0.0
2018-May-31 02:49N 14°04' W 061°01'0 0.0
2018-May-30 17:31N 14°04' W 061°01'0 0.0
2018-May-30 12:01N 14°04' W 061°01'0 0.0
2018-May-30 11:31N 14°04' W 061°01'0 0.0
2018-May-30 04:07N 14°04' W 061°01'0 0.0
2018-May-30 03:01N 14°04' W 061°01'0 0.0
2018-May-30 02:31N 14°04' W 061°01'0 0.1
2018-May-30 01:13N 14°04' W 061°01'2 4.9
2018-May-30 00:53N 14°03' W 061°03'  
Track history (hours):
 
Tides and Currents Weather Stations Pressure Air Temp Water Temp Dewpoint Dewpoint Depression Visibility Wind Speed Wind Dir Waves Ship Positions

Ariadne Jacob

Last reported at 2018-Jun-04 15:53 UTC. Time now 2018-Jun-19 14:04 UTC.
Position N 17°29' W 063°01'.
Warning: this ship's position is 14 days out of date.

Length 228 m; draft 9.6 m.

Type: Tanker. MMSI: 319768000.

Date/timePositionNaut miles runAvg speedWind from/ knotsBaromVisibWave heightAir tempDewpointWater temp
2018-Jun-04 15:53N 17°29' W 063°01'0 0.3
2018-Jun-04 15:26N 17°29' W 063°01'0 0.0
2018-Jun-04 14:56N 17°29' W 063°01'0 0.0
2018-Jun-04 14:26N 17°29' W 063°01'0 0.0
2018-Jun-04 13:41N 17°29' W 063°01'0 0.1
2018-Jun-04 13:23N 17°29' W 063°01'1 0.0
2018-Jun-03 05:01N 17°30' W 063°00'0 1.5
2018-Jun-03 04:56N 17°29' W 063°00'2 2.3
2018-Jun-03 04:03N 17°29' W 063°02'2 7.8
2018-Jun-03 03:45N 17°27' W 063°04'411.3
2018-Jun-03 03:26N 17°26' W 063°08'1 1.8
2018-Jun-03 02:44N 17°26' W 063°09'0 1.6
2018-Jun-03 02:25N 17°26' W 063°09'5 1.4
2018-Jun-02 22:44N 17°29' W 063°04'4 5.5
2018-Jun-02 22:02N 17°25' W 063°04'0 7.8
2018-Jun-02 22:00N 17°25' W 063°04'5 9.5
2018-Jun-02 21:26N 17°20' W 063°07'15 9.5
2018-Jun-02 19:49N 17°10' W 062°55'413.3
2018-Jun-02 19:30N 17°06' W 062°53'16713.6
2018-Jun-02 07:16N 14°41' W 061°28'814.1
2018-Jun-02 06:41N 14°34' W 061°23'314.4
2018-Jun-02 06:27N 14°31' W 061°22'1214.4
2018-Jun-02 05:35N 14°20' W 061°16'114.8
2018-Jun-02 05:30N 14°19' W 061°15'714.3
2018-Jun-02 05:00N 14°13' W 061°11'14 0.4
2018-May-31 18:53N 14°04' W 061°01'0 0.0
2018-May-31 03:22N 14°04' W 061°01'0 0.0
2018-May-31 02:49N 14°04' W 061°01'0 0.0
2018-May-30 17:31N 14°04' W 061°01'0 0.0
2018-May-30 12:01N 14°04' W 061°01'0 0.0
2018-May-30 11:31N 14°04' W 061°01'0 0.0
2018-May-30 04:07N 14°04' W 061°01'0 0.0
2018-May-30 03:01N 14°04' W 061°01'0 0.0
2018-May-30 02:31N 14°04' W 061°01'0 0.1
2018-May-30 01:13N 14°04' W 061°01'2 4.9
2018-May-30 00:53N 14°03' W 061°03'  

Dump ship's entire track history